createdAt,value
2022-10-10T00:01:39.968Z,80.89
2022-10-10T00:04:06.396Z,80.85
2022-10-10T00:06:33.673Z,80.94
2022-10-10T00:09:00.744Z,80.99
2022-10-10T00:11:27.108Z,81.11
2022-10-10T00:13:53.540Z,81.69
2022-10-10T00:16:20.429Z,81.71
2022-10-10T00:18:47.095Z,81.50
2022-10-10T00:21:13.628Z,81.71
2022-10-10T00:23:40.054Z,80.92
2022-10-10T00:26:09.038Z,81.07
2022-10-10T00:28:38.710Z,81.34
2022-10-10T00:31:09.209Z,81.47
2022-10-10T00:33:35.962Z,81.19
2022-10-10T00:36:04.194Z,81.34
2022-10-10T00:38:31.809Z,81.49
2022-10-10T00:40:58.448Z,81.65
2022-10-10T00:43:25.750Z,80.91
2022-10-10T00:45:52.914Z,81.18
2022-10-10T00:48:27.839Z,81.33
2022-10-10T00:50:59.004Z,80.60
2022-10-10T00:53:45.729Z,81.37
2022-10-10T00:56:13.161Z,81.77
2022-10-10T00:58:45.209Z,81.55
2022-10-10T01:01:11.635Z,81.33
2022-10-10T01:03:38.194Z,80.71
2022-10-10T01:06:05.302Z,80.53
2022-10-10T01:08:32.054Z,81.39
2022-10-10T01:11:01.247Z,81.24
2022-10-10T01:13:30.629Z,81.32
2022-10-10T01:16:00.920Z,81.58
2022-10-10T01:18:30.437Z,81.11
2022-10-10T01:20:56.788Z,81.61
2022-10-10T01:23:36.222Z,81.77
2022-10-10T01:26:08.542Z,81.15
2022-10-10T01:28:38.002Z,82.49
2022-10-10T01:31:06.424Z,82.88
2022-10-10T01:33:38.618Z,82.76
2022-10-10T01:36:12.767Z,81.53
2022-10-10T01:38:45.955Z,81.62
2022-10-10T01:41:27.453Z,81.35
2022-10-10T01:43:57.673Z,82.15
2022-10-10T01:46:24.617Z,82.60
2022-10-10T01:48:52.488Z,83.69
2022-10-10T01:51:45.390Z,83.91
2022-10-10T01:54:11.756Z,82.51
2022-10-10T01:56:47.873Z,82.64
2022-10-10T01:59:21.375Z,83.20
2022-10-10T02:01:50.553Z,82.84
2022-10-10T02:04:28.456Z,82.42
2022-10-10T02:06:57.520Z,82.76
2022-10-10T02:09:31.280Z,82.91
2022-10-10T02:11:59.126Z,83.00
2022-10-10T02:14:29.297Z,82.67
2022-10-10T02:16:57.901Z,83.08
2022-10-10T02:19:25.477Z,82.74
2022-10-10T02:21:53.079Z,82.44
2022-10-10T02:24:21.327Z,82.77
2022-10-10T02:26:52.797Z,83.28
2022-10-10T02:29:28.889Z,83.77
2022-10-10T02:32:14.135Z,84.00
2022-10-10T02:34:43.108Z,83.95
2022-10-10T02:37:12.577Z,84.47
2022-10-10T02:39:43.632Z,84.54
2022-10-10T02:42:12.007Z,84.34
2022-10-10T02:44:39.004Z,84.31
2022-10-10T02:47:05.777Z,84.97
2022-10-10T02:49:33.792Z,85.01
2022-10-10T02:52:00.306Z,84.52
2022-10-10T02:54:26.960Z,85.47
2022-10-10T02:56:53.694Z,84.93
2022-10-10T02:59:20.078Z,85.19
2022-10-10T03:01:46.848Z,85.41
2022-10-10T03:04:13.519Z,85.16
2022-10-10T03:06:39.908Z,85.63
2022-10-10T03:09:06.313Z,85.18
2022-10-10T03:11:32.776Z,86.03
2022-10-10T03:13:59.198Z,86.46
2022-10-10T03:16:25.588Z,86.71
2022-10-10T03:18:51.951Z,86.79
2022-10-10T03:21:18.524Z,86.43
2022-10-10T03:23:44.885Z,87.26
2022-10-10T03:26:11.268Z,87.26
2022-10-10T03:28:37.890Z,87.90
2022-10-10T03:31:04.605Z,87.14
2022-10-10T03:33:30.990Z,88.21
2022-10-10T03:35:57.349Z,87.90
2022-10-10T03:38:23.753Z,88.19
2022-10-10T03:40:50.179Z,89.35
2022-10-10T03:43:16.555Z,89.14
2022-10-10T03:45:44.057Z,88.92
2022-10-10T03:48:10.800Z,88.69
2022-10-10T03:50:37.670Z,89.75
2022-10-10T03:53:04.318Z,89.45
2022-10-10T03:55:30.675Z,89.51
2022-10-10T03:57:57.154Z,89.49
2022-10-10T04:00:23.531Z,89.68
2022-10-10T04:02:50.176Z,89.76
2022-10-10T04:05:16.768Z,89.30
2022-10-10T04:07:43.146Z,89.01
2022-10-10T04:10:09.982Z,88.79
2022-10-10T04:12:36.420Z,88.96
2022-10-10T04:15:02.928Z,88.91
2022-10-10T04:17:29.297Z,89.05
2022-10-10T04:19:55.646Z,89.31
2022-10-10T04:22:22.010Z,88.09
2022-10-10T04:24:48.481Z,88.56
2022-10-10T04:27:14.870Z,87.59
2022-10-10T04:29:41.458Z,87.64
2022-10-10T04:32:08.002Z,87.99
2022-10-10T04:34:34.382Z,87.83
2022-10-10T04:37:00.769Z,88.30
2022-10-10T04:39:27.170Z,88.80
2022-10-10T04:41:53.526Z,88.27
2022-10-10T04:44:19.910Z,87.83
2022-10-10T04:46:46.395Z,87.99
2022-10-10T04:49:12.810Z,88.66
2022-10-10T04:51:39.183Z,88.54
2022-10-10T04:54:05.619Z,87.80
2022-10-10T04:56:32.059Z,87.86
2022-10-10T04:58:58.423Z,87.54
2022-10-10T05:01:24.833Z,87.51
2022-10-10T05:03:51.222Z,87.79
2022-10-10T05:06:17.578Z,88.00
2022-10-10T05:08:43.936Z,88.17
2022-10-10T05:11:10.296Z,87.87
2022-10-10T05:13:36.690Z,88.53
2022-10-10T05:16:03.144Z,88.32
2022-10-10T05:18:29.535Z,88.10
2022-10-10T05:20:58.721Z,88.16
2022-10-10T05:23:29.019Z,88.03
2022-10-10T05:25:55.374Z,88.24
2022-10-10T05:28:21.792Z,88.40
2022-10-10T05:30:48.189Z,88.21
2022-10-10T05:33:14.538Z,87.93
2022-10-10T05:35:40.953Z,87.87
2022-10-10T05:38:07.399Z,88.10
2022-10-10T05:40:33.871Z,88.58
2022-10-10T05:43:00.248Z,89.10
2022-10-10T05:45:26.607Z,88.99
2022-10-10T05:47:52.989Z,89.87
2022-10-10T05:50:25.262Z,89.95
2022-10-10T05:52:51.988Z,90.32
2022-10-10T05:55:18.506Z,90.30
2022-10-10T05:57:44.871Z,90.15
2022-10-10T06:00:11.529Z,89.91
2022-10-10T06:02:37.927Z,89.58
2022-10-10T06:05:04.789Z,89.86
2022-10-10T06:07:51.811Z,89.41
2022-10-10T06:10:17.530Z,90.62
2022-10-10T06:12:43.889Z,90.18
2022-10-10T06:15:10.549Z,89.83
2022-10-10T06:17:36.919Z,89.81
2022-10-10T06:20:03.880Z,90.39
2022-10-10T06:22:30.278Z,90.23
2022-10-10T06:24:56.671Z,90.03
2022-10-10T06:27:23.321Z,89.75
2022-10-10T06:29:49.705Z,89.86
2022-10-10T06:32:16.101Z,90.40
2022-10-10T06:34:42.478Z,90.43
2022-10-10T06:37:08.885Z,90.81
2022-10-10T06:39:35.246Z,91.05
2022-10-10T06:42:01.647Z,91.04
2022-10-10T06:44:28.011Z,90.77
2022-10-10T06:46:54.370Z,90.96
2022-10-10T06:49:20.738Z,91.76
2022-10-10T06:51:47.516Z,92.07
2022-10-10T06:54:13.888Z,92.79
2022-10-10T06:56:40.328Z,93.80
2022-10-10T06:59:06.706Z,93.46
2022-10-10T07:01:33.119Z,94.27
2022-10-10T07:03:59.567Z,94.44
2022-10-10T07:06:26.226Z,95.21
2022-10-10T07:08:52.584Z,95.47
2022-10-10T07:11:18.970Z,96.49
2022-10-10T07:13:45.356Z,96.35
2022-10-10T07:16:11.867Z,97.10
2022-10-10T07:18:38.328Z,96.82
2022-10-10T07:21:04.956Z,96.92
2022-10-10T07:23:32.872Z,97.30
2022-10-10T07:26:00.825Z,96.98
2022-10-10T07:28:27.924Z,97.10
2022-10-10T07:30:59.292Z,97.04
2022-10-10T07:33:25.678Z,98.47
2022-10-10T07:35:55.170Z,98.09
2022-10-10T07:38:21.531Z,99.28
2022-10-10T07:40:47.906Z,99.20
2022-10-10T07:43:14.538Z,99.82
2022-10-10T07:45:40.917Z,100.00
2022-10-10T07:48:07.304Z,100.00
2022-10-10T07:50:33.694Z,100.00
2022-10-10T07:53:00.112Z,100.00
2022-10-10T07:55:26.844Z,100.00
2022-10-10T07:57:53.542Z,100.00
2022-10-10T08:00:20.217Z,100.00
2022-10-10T08:02:46.704Z,100.00
2022-10-10T08:05:13.118Z,100.00
2022-10-10T08:07:39.504Z,100.00
2022-10-10T08:10:06.643Z,100.00
2022-10-10T08:12:33.070Z,100.00
2022-10-10T08:15:00.831Z,100.00
2022-10-10T08:17:27.288Z,100.00
2022-10-10T08:19:53.745Z,100.00
2022-10-10T08:22:20.127Z,100.00
2022-10-10T08:24:46.472Z,100.00
2022-10-10T08:27:14.588Z,100.00
2022-10-10T08:29:40.950Z,100.00
2022-10-10T08:32:07.308Z,100.00
2022-10-10T08:34:33.728Z,100.00
2022-10-10T08:37:00.111Z,100.00
2022-10-10T08:39:26.536Z,100.00
2022-10-10T08:41:56.636Z,100.00
2022-10-10T08:44:43.690Z,100.00
2022-10-10T08:47:10.208Z,100.00
2022-10-10T08:49:42.585Z,100.00
2022-10-10T08:52:29.280Z,100.00
2022-10-10T08:54:58.667Z,100.00
2022-10-10T08:57:27.148Z,99.85
2022-10-10T08:59:56.442Z,100.00
2022-10-10T09:02:38.293Z,100.00
2022-10-10T09:05:17.864Z,100.00
2022-10-10T09:07:44.331Z,100.00
2022-10-10T09:10:35.993Z,100.00
2022-10-10T09:13:09.560Z,100.00
2022-10-10T09:15:45.752Z,100.00
2022-10-10T09:18:20.999Z,100.00
2022-10-10T09:20:53.334Z,100.00
2022-10-10T09:23:35.083Z,100.00
2022-10-10T09:26:11.005Z,100.00
2022-10-10T09:28:46.989Z,100.00
2022-10-10T09:31:22.400Z,100.00
2022-10-10T09:33:53.768Z,100.00
2022-10-10T09:36:23.736Z,100.00
2022-10-10T09:38:52.916Z,100.00
2022-10-10T09:41:25.420Z,100.00
2022-10-10T09:44:05.041Z,100.00
2022-10-10T09:46:31.399Z,98.22
2022-10-10T09:48:57.990Z,96.56
2022-10-10T09:51:24.367Z,97.00
2022-10-10T09:53:50.931Z,96.02
2022-10-10T09:56:25.681Z,96.67
2022-10-10T09:58:53.244Z,95.99
2022-10-10T10:01:21.238Z,95.88
2022-10-10T10:04:17.319Z,95.37
2022-10-10T10:07:03.247Z,92.08
2022-10-10T10:09:29.683Z,91.49
2022-10-10T10:11:56.940Z,93.16
2022-10-10T10:14:29.231Z,94.05
2022-10-10T10:17:04.833Z,92.29
2022-10-10T10:19:41.860Z,91.02
2022-10-10T10:22:27.221Z,91.38
2022-10-10T10:24:54.089Z,87.96
2022-10-10T10:27:22.562Z,86.68
2022-10-10T10:29:50.853Z,87.27
2022-10-10T10:32:24.893Z,85.76
2022-10-10T10:34:53.993Z,81.21
2022-10-10T10:37:20.453Z,75.39
2022-10-10T10:39:46.781Z,73.19
2022-10-10T10:42:41.983Z,71.31
2022-10-10T10:45:14.405Z,75.30
2022-10-10T10:47:43.973Z,71.28
2022-10-10T10:50:10.310Z,72.76
2022-10-10T10:52:39.755Z,70.75
2022-10-10T10:55:14.682Z,68.34
2022-10-10T10:58:00.087Z,66.93
2022-10-10T11:03:38.491Z,67.70
2022-10-10T11:06:20.986Z,69.51
2022-10-10T11:08:57.681Z,68.59
2022-10-10T11:11:30.093Z,66.59
2022-10-10T11:14:10.057Z,67.02
2022-10-10T11:16:58.883Z,65.79
2022-10-10T11:19:28.040Z,63.96
2022-10-10T11:22:00.742Z,62.07
2022-10-10T11:24:47.420Z,62.93
2022-10-10T11:27:20.040Z,64.23
2022-10-10T11:29:49.217Z,65.49
2022-10-10T11:34:51.911Z,65.32
2022-10-10T11:37:20.915Z,62.01
2022-10-10T11:39:58.715Z,60.71
2022-10-10T11:42:47.892Z,62.74
2022-10-10T11:45:16.075Z,62.93
2022-10-10T11:48:00.800Z,61.69
2022-10-10T11:50:34.709Z,59.88
2022-10-10T11:53:10.384Z,59.55
2022-10-10T11:55:41.117Z,59.97
2022-10-10T11:58:07.515Z,60.90
2022-10-10T12:00:35.906Z,58.48
2022-10-10T12:03:02.314Z,57.45
2022-10-10T12:05:29.974Z,60.00
2022-10-10T12:07:56.357Z,57.78
2022-10-10T12:10:25.735Z,58.29
2022-10-10T12:12:55.015Z,59.37
2022-10-10T12:15:37.245Z,57.92
2022-10-10T12:18:06.589Z,55.28
2022-10-10T12:20:36.368Z,56.23
2022-10-10T12:23:10.212Z,55.58
2022-10-10T12:25:42.172Z,54.96
2022-10-10T12:28:14.437Z,55.71
2022-10-10T12:30:57.721Z,55.49
2022-10-10T12:33:33.916Z,57.36
2022-10-10T12:36:21.770Z,54.71
2022-10-10T12:39:05.859Z,56.58
2022-10-10T12:41:47.779Z,55.43
2022-10-10T12:44:32.824Z,55.00
2022-10-10T12:47:14.548Z,56.37
2022-10-10T12:49:55.055Z,55.73
2022-10-10T12:52:21.400Z,54.58
2022-10-10T12:54:48.679Z,54.96
2022-10-10T12:57:28.251Z,55.85
2022-10-10T12:59:57.645Z,53.17
2022-10-10T13:02:27.965Z,53.48
2022-10-10T13:04:56.204Z,52.66
2022-10-10T13:07:23.106Z,51.84
2022-10-10T13:09:51.223Z,52.10
2022-10-10T13:12:28.613Z,51.60
2022-10-10T13:14:55.527Z,52.40
2022-10-10T13:17:28.070Z,50.29
2022-10-10T13:19:55.886Z,48.64
2022-10-10T13:22:22.635Z,49.91
2022-10-10T13:24:50.376Z,49.82
2022-10-10T13:27:27.670Z,49.28
2022-10-10T13:29:54.716Z,47.72
2022-10-10T13:32:23.240Z,50.40
2022-10-10T13:34:52.187Z,49.75
2022-10-10T13:37:19.582Z,46.75
2022-10-10T13:39:47.687Z,46.27
2022-10-10T13:42:26.222Z,48.57
2022-10-10T13:44:54.167Z,46.49
2022-10-10T13:47:35.868Z,47.24
2022-10-10T13:50:03.804Z,48.76
2022-10-10T13:52:30.166Z,49.41
2022-10-10T13:55:13.731Z,47.23
2022-10-10T13:57:40.307Z,49.21
2022-10-10T14:00:14.210Z,47.79
2022-10-10T14:02:41.556Z,47.80
2022-10-10T14:05:09.326Z,46.33
2022-10-10T14:07:36.427Z,47.38
2022-10-10T14:10:10.388Z,48.10
2022-10-10T14:12:48.827Z,48.49
2022-10-10T14:15:33.454Z,47.49
2022-10-10T14:17:59.822Z,47.59
2022-10-10T14:20:26.186Z,47.54
2022-10-10T14:22:52.566Z,49.16
2022-10-10T14:25:18.962Z,48.46
2022-10-10T14:27:45.414Z,47.24
2022-10-10T14:30:14.326Z,48.90
2022-10-10T14:32:40.746Z,49.62
2022-10-10T14:35:07.220Z,49.80
2022-10-10T14:37:34.220Z,50.45
2022-10-10T14:40:00.716Z,50.26
2022-10-10T14:42:27.084Z,50.10
2022-10-10T14:44:53.467Z,50.14
2022-10-10T14:47:21.426Z,50.68
2022-10-10T14:49:48.097Z,51.67
2022-10-10T14:52:14.838Z,52.08
2022-10-10T14:54:41.237Z,52.31
2022-10-10T14:57:10.143Z,51.75
2022-10-10T14:59:47.285Z,52.81
2022-10-10T15:02:15.121Z,53.22
2022-10-10T15:04:41.504Z,54.25
2022-10-10T15:07:13.343Z,54.03
2022-10-10T15:09:47.450Z,55.36
2022-10-10T15:12:23.182Z,56.00
2022-10-10T15:14:49.580Z,56.45
2022-10-10T15:17:15.950Z,56.91
2022-10-10T15:19:42.336Z,57.31
2022-10-10T15:22:08.720Z,57.97
2022-10-10T15:24:35.172Z,58.88
2022-10-10T15:27:01.564Z,59.14
2022-10-10T15:29:28.020Z,60.31
2022-10-10T15:31:54.401Z,60.43
2022-10-10T15:34:21.144Z,61.02
2022-10-10T15:36:47.511Z,61.51
2022-10-10T15:39:13.878Z,62.01
2022-10-10T15:41:40.345Z,62.34
2022-10-10T15:44:12.321Z,62.44
2022-10-10T15:46:39.584Z,62.62
2022-10-10T15:49:06.071Z,63.37
2022-10-10T15:51:32.452Z,63.45
2022-10-10T15:53:59.251Z,64.06
2022-10-10T15:56:26.248Z,64.39
2022-10-10T15:58:56.614Z,64.74
2022-10-10T16:01:23.553Z,64.79
2022-10-10T16:03:50.048Z,65.35
2022-10-10T16:06:17.982Z,65.44
2022-10-10T16:08:44.641Z,65.82
2022-10-10T16:11:12.009Z,65.64
2022-10-10T16:13:39.388Z,65.87
2022-10-10T16:16:06.775Z,65.71
2022-10-10T16:18:37.893Z,65.84
2022-10-10T16:21:07.204Z,66.38
2022-10-10T16:23:33.812Z,66.58
2022-10-10T16:26:07.537Z,67.14
2022-10-10T16:28:34.479Z,67.49
2022-10-10T16:31:01.890Z,67.46
2022-10-10T16:33:28.423Z,67.50
2022-10-10T16:35:54.798Z,68.13
2022-10-10T16:38:21.258Z,68.52
2022-10-10T16:40:47.661Z,68.41
2022-10-10T16:43:14.153Z,68.68
2022-10-10T16:45:41.332Z,69.04
2022-10-10T16:48:07.702Z,69.20
2022-10-10T16:50:34.085Z,69.29
2022-10-10T16:53:03.062Z,69.51
2022-10-10T16:55:29.414Z,69.49
2022-10-10T16:57:59.146Z,69.38
2022-10-10T17:00:25.571Z,69.56
2022-10-10T17:02:51.998Z,69.99
2022-10-10T17:05:18.350Z,69.71
2022-10-10T17:07:44.717Z,69.99
2022-10-10T17:10:11.130Z,70.14
2022-10-10T17:12:37.567Z,70.47
2022-10-10T17:15:04.437Z,70.37
2022-10-10T17:17:30.810Z,70.96
2022-10-10T17:19:57.161Z,71.23
2022-10-10T17:22:23.586Z,71.26
2022-10-10T17:24:49.950Z,71.22
2022-10-10T17:27:16.315Z,71.30
2022-10-10T17:29:42.682Z,71.30
2022-10-10T17:32:09.066Z,71.53
2022-10-10T17:34:35.443Z,72.11
2022-10-10T17:37:02.150Z,72.50
2022-10-10T17:39:28.553Z,72.54
2022-10-10T17:41:55.002Z,72.37
2022-10-10T17:44:21.421Z,72.76
2022-10-10T17:46:47.802Z,72.83
2022-10-10T17:49:14.189Z,73.40
2022-10-10T17:51:41.293Z,72.99
2022-10-10T17:54:07.918Z,73.11
2022-10-10T17:56:34.735Z,73.94
2022-10-10T17:59:01.908Z,73.39
2022-10-10T18:01:30.598Z,73.81
2022-10-10T18:03:57.627Z,73.65
2022-10-10T18:06:24.153Z,73.88
2022-10-10T18:08:51.311Z,74.39
2022-10-10T18:11:19.796Z,74.52
2022-10-10T18:13:46.189Z,74.84
2022-10-10T18:16:16.918Z,74.88
2022-10-10T18:18:49.627Z,74.88
2022-10-10T18:21:18.220Z,75.31
2022-10-10T18:23:44.616Z,75.18
2022-10-10T18:26:15.506Z,75.54
2022-10-10T18:28:45.341Z,75.86
2022-10-10T18:31:15.927Z,75.41
2022-10-10T18:33:44.806Z,76.53
2022-10-10T18:36:12.388Z,76.62
2022-10-10T18:38:38.798Z,76.76
2022-10-10T18:41:09.715Z,76.63
2022-10-10T18:43:36.654Z,76.70
2022-10-10T18:46:04.432Z,77.02
2022-10-10T18:48:31.325Z,76.95
2022-10-10T18:51:05.890Z,76.62
2022-10-10T18:53:42.735Z,77.06
2022-10-10T18:56:09.689Z,77.06
2022-10-10T18:58:36.602Z,77.17
2022-10-10T19:01:08.441Z,77.38
2022-10-10T19:03:35.625Z,76.84
2022-10-10T19:06:03.012Z,77.30
2022-10-10T19:08:32.009Z,77.16
2022-10-10T19:10:58.496Z,77.33
2022-10-10T19:13:24.992Z,76.67
2022-10-10T19:15:52.318Z,77.13
2022-10-10T19:18:19.253Z,76.88
2022-10-10T19:20:45.671Z,77.83
2022-10-10T19:23:14.901Z,77.33
2022-10-10T19:25:42.002Z,78.36
2022-10-10T19:28:08.692Z,77.42
2022-10-10T19:30:39.130Z,77.69
2022-10-10T19:33:05.869Z,77.62
2022-10-10T19:35:35.852Z,77.92
2022-10-10T19:38:02.262Z,78.04
2022-10-10T19:40:28.626Z,78.11
2022-10-10T19:42:54.996Z,78.36
2022-10-10T19:45:21.407Z,78.38
2022-10-10T19:47:47.782Z,78.67
2022-10-10T19:50:14.193Z,78.96
2022-10-10T19:52:40.611Z,78.81
2022-10-10T19:55:07.147Z,78.96
2022-10-10T19:57:33.504Z,79.52
2022-10-10T19:59:59.870Z,79.39
2022-10-10T20:02:26.298Z,79.16
2022-10-10T20:04:52.668Z,79.73
2022-10-10T20:07:19.064Z,79.78
2022-10-10T20:09:45.618Z,80.41
2022-10-10T20:12:11.993Z,79.90
2022-10-10T20:14:38.369Z,79.87
2022-10-10T20:17:04.771Z,80.05
2022-10-10T20:19:31.183Z,79.66
2022-10-10T20:21:57.545Z,79.84
2022-10-10T20:24:23.926Z,79.88
2022-10-10T20:26:50.318Z,80.12
2022-10-10T20:29:16.716Z,79.83
2022-10-10T20:31:43.096Z,79.77
2022-10-10T20:34:09.704Z,79.52
2022-10-10T20:36:36.618Z,79.67
2022-10-10T20:39:08.334Z,79.79
2022-10-10T20:41:35.193Z,79.70
2022-10-10T20:44:03.171Z,80.25
2022-10-10T20:46:31.829Z,80.25
2022-10-10T20:48:59.215Z,80.41
2022-10-10T20:51:26.654Z,80.84
2022-10-10T20:53:57.702Z,80.49
2022-10-10T20:56:24.577Z,80.34
2022-10-10T20:58:51.554Z,80.49
2022-10-10T21:01:19.375Z,80.80
2022-10-10T21:03:46.473Z,80.73
2022-10-10T21:06:17.098Z,80.94
2022-10-10T21:08:43.834Z,81.05
2022-10-10T21:11:11.722Z,80.94
2022-10-10T21:13:39.201Z,80.69
2022-10-10T21:16:06.734Z,80.89
2022-10-10T21:18:33.538Z,81.09
2022-10-10T21:21:00.761Z,81.09
2022-10-10T21:23:28.180Z,81.11
2022-10-10T21:25:54.578Z,81.26
2022-10-10T21:28:20.983Z,81.04
2022-10-10T21:30:51.255Z,80.85
2022-10-10T21:33:19.990Z,80.81
2022-10-10T21:35:47.184Z,81.19
2022-10-10T21:38:14.013Z,81.38
2022-10-10T21:40:40.441Z,81.22
2022-10-10T21:43:06.926Z,81.47
2022-10-10T21:45:33.973Z,81.90
2022-10-10T21:48:00.330Z,81.23
2022-10-10T21:50:27.243Z,81.23
2022-10-10T21:52:53.676Z,81.10
2022-10-10T21:55:20.370Z,81.13
2022-10-10T21:57:48.272Z,81.17
2022-10-10T22:00:14.978Z,81.39
2022-10-10T22:02:42.103Z,81.52
2022-10-10T22:05:11.264Z,81.40
2022-10-10T22:07:38.166Z,81.64
2022-10-10T22:10:05.478Z,81.49
2022-10-10T22:12:31.852Z,81.79
2022-10-10T22:14:58.400Z,81.41
2022-10-10T22:17:24.900Z,81.43
2022-10-10T22:19:51.821Z,81.38
2022-10-10T22:22:18.572Z,81.78
2022-10-10T22:24:44.954Z,82.18
2022-10-10T22:27:11.362Z,81.87
2022-10-10T22:29:37.714Z,81.53
2022-10-10T22:32:04.113Z,81.64
2022-10-10T22:34:30.560Z,81.37
2022-10-10T22:36:57.068Z,81.57
2022-10-10T22:39:23.434Z,82.09
2022-10-10T22:41:49.827Z,82.10
2022-10-10T22:44:17.786Z,82.05
2022-10-10T22:46:44.159Z,81.71
2022-10-10T22:49:10.542Z,81.83
2022-10-10T22:51:37.353Z,81.91
2022-10-10T22:54:03.900Z,81.96
2022-10-10T22:56:30.286Z,81.96
2022-10-10T22:58:56.722Z,82.12
2022-10-10T23:01:24.251Z,81.76
2022-10-10T23:03:53.722Z,81.63
2022-10-10T23:06:20.076Z,82.03
2022-10-10T23:08:46.443Z,82.05
2022-10-10T23:11:12.809Z,81.88
2022-10-10T23:13:39.210Z,81.90
2022-10-10T23:16:05.884Z,82.45
2022-10-10T23:18:32.591Z,82.31
2022-10-10T23:20:58.974Z,82.88
2022-10-10T23:23:25.694Z,82.80
2022-10-10T23:25:52.084Z,82.63
2022-10-10T23:28:18.928Z,82.75
2022-10-10T23:30:46.428Z,82.78
2022-10-10T23:33:13.031Z,82.95
2022-10-10T23:35:39.454Z,82.61
2022-10-10T23:38:06.073Z,83.28
2022-10-10T23:40:33.878Z,83.61
2022-10-10T23:43:00.279Z,83.42
2022-10-10T23:45:26.680Z,83.09
2022-10-10T23:47:53.061Z,83.24
2022-10-10T23:50:19.518Z,84.56
2022-10-10T23:52:45.886Z,84.11
2022-10-10T23:55:12.766Z,83.75
2022-10-10T23:57:39.148Z,83.48
